sensor_id;sensor_type;location;lat;lon;timestamp;P1;durP1;ratioP1;P2;durP2;ratioP2
73023;SDS011;61199;47.526;8.538;2023-03-26T00:00:50;7.87;;;2.03;;
73023;SDS011;61199;47.526;8.538;2023-03-26T00:03:19;14.47;;;1.97;;
73023;SDS011;61199;47.526;8.538;2023-03-26T00:05:45;12.57;;;2.40;;
73023;SDS011;61199;47.526;8.538;2023-03-26T00:08:14;5.50;;;2.00;;
73023;SDS011;61199;47.526;8.538;2023-03-26T00:10:42;9.30;;;2.30;;
73023;SDS011;61199;47.526;8.538;2023-03-26T00:13:09;14.23;;;2.87;;
73023;SDS011;61199;47.526;8.538;2023-03-26T00:15:36;6.53;;;2.10;;
73023;SDS011;61199;47.526;8.538;2023-03-26T00:18:02;12.53;;;2.67;;
73023;SDS011;61199;47.526;8.538;2023-03-26T00:20:30;5.83;;;1.40;;
73023;SDS011;61199;47.526;8.538;2023-03-26T00:22:59;5.00;;;1.43;;
73023;SDS011;61199;47.526;8.538;2023-03-26T00:25:26;4.87;;;1.90;;
73023;SDS011;61199;47.526;8.538;2023-03-26T00:27:53;7.77;;;2.03;;
73023;SDS011;61199;47.526;8.538;2023-03-26T00:30:19;5.80;;;2.00;;
73023;SDS011;61199;47.526;8.538;2023-03-26T00:32:46;12.80;;;2.27;;
73023;SDS011;61199;47.526;8.538;2023-03-26T00:35:19;15.53;;;2.03;;
73023;SDS011;61199;47.526;8.538;2023-03-26T00:37:45;5.23;;;1.70;;
73023;SDS011;61199;47.526;8.538;2023-03-26T00:40:12;4.57;;;1.90;;
73023;SDS011;61199;47.526;8.538;2023-03-26T00:42:38;4.33;;;1.83;;
73023;SDS011;61199;47.526;8.538;2023-03-26T00:45:05;3.33;;;1.60;;
73023;SDS011;61199;47.526;8.538;2023-03-26T00:47:33;8.90;;;1.80;;
73023;SDS011;61199;47.526;8.538;2023-03-26T00:49:59;9.10;;;1.93;;
73023;SDS011;61199;47.526;8.538;2023-03-26T00:52:26;7.80;;;2.10;;
73023;SDS011;61199;47.526;8.538;2023-03-26T00:54:53;6.00;;;1.97;;
73023;SDS011;61199;47.526;8.538;2023-03-26T00:57:20;7.80;;;2.40;;
73023;SDS011;61199;47.526;8.538;2023-03-26T01:00:00;6.40;;;1.70;;
73023;SDS011;61199;47.526;8.538;2023-03-26T01:02:41;5.40;;;2.20;;
73023;SDS011;61199;47.526;8.538;2023-03-26T01:10:58;7.80;;;1.73;;
73023;SDS011;61199;47.526;8.538;2023-03-26T01:13:29;8.20;;;1.90;;
73023;SDS011;61199;47.526;8.538;2023-03-26T01:15:59;4.10;;;1.57;;
73023;SDS011;61199;47.526;8.538;2023-03-26T01:18:28;6.27;;;1.70;;
73023;SDS011;61199;47.526;8.538;2023-03-26T01:21:00;6.60;;;1.63;;
73023;SDS011;61199;47.526;8.538;2023-03-26T01:23:35;6.53;;;1.83;;
73023;SDS011;61199;47.526;8.538;2023-03-26T01:26:11;7.07;;;1.83;;
73023;SDS011;61199;47.526;8.538;2023-03-26T01:29:01;5.73;;;1.87;;
73023;SDS011;61199;47.526;8.538;2023-03-26T01:31:30;12.93;;;2.47;;
73023;SDS011;61199;47.526;8.538;2023-03-26T01:34:09;6.60;;;2.20;;
73023;SDS011;61199;47.526;8.538;2023-03-26T01:36:41;13.77;;;2.27;;
73023;SDS011;61199;47.526;8.538;2023-03-26T01:39:18;8.03;;;2.03;;
73023;SDS011;61199;47.526;8.538;2023-03-26T01:41:53;4.20;;;1.80;;
73023;SDS011;61199;47.526;8.538;2023-03-26T01:46:50;4.30;;;1.60;;
73023;SDS011;61199;47.526;8.538;2023-03-26T01:49:19;5.13;;;1.30;;
73023;SDS011;61199;47.526;8.538;2023-03-26T01:51:45;7.50;;;1.90;;
73023;SDS011;61199;47.526;8.538;2023-03-26T01:54:14;5.37;;;1.67;;
73023;SDS011;61199;47.526;8.538;2023-03-26T02:02:34;4.40;;;1.93;;
73023;SDS011;61199;47.526;8.538;2023-03-26T02:08:16;4.73;;;1.57;;
73023;SDS011;61199;47.526;8.538;2023-03-26T02:10:57;8.83;;;2.00;;
73023;SDS011;61199;47.526;8.538;2023-03-26T02:13:27;11.57;;;3.60;;
73023;SDS011;61199;47.526;8.538;2023-03-26T02:15:57;5.23;;;1.90;;
73023;SDS011;61199;47.526;8.538;2023-03-26T02:18:29;9.73;;;3.03;;
73023;SDS011;61199;47.526;8.538;2023-03-26T02:21:02;13.57;;;3.30;;
73023;SDS011;61199;47.526;8.538;2023-03-26T02:23:41;17.80;;;3.13;;
73023;SDS011;61199;47.526;8.538;2023-03-26T02:26:13;10.43;;;2.10;;
73023;SDS011;61199;47.526;8.538;2023-03-26T02:28:44;3.40;;;1.70;;
73023;SDS011;61199;47.526;8.538;2023-03-26T02:31:11;4.93;;;1.90;;
73023;SDS011;61199;47.526;8.538;2023-03-26T02:33:38;6.57;;;1.77;;
73023;SDS011;61199;47.526;8.538;2023-03-26T02:36:05;10.80;;;2.07;;
73023;SDS011;61199;47.526;8.538;2023-03-26T02:38:33;54.47;;;24.10;;
73023;SDS011;61199;47.526;8.538;2023-03-26T02:41:03;44.00;;;19.70;;
73023;SDS011;61199;47.526;8.538;2023-03-26T02:43:30;28.93;;;13.03;;
73023;SDS011;61199;47.526;8.538;2023-03-26T02:45:56;15.07;;;7.80;;
73023;SDS011;61199;47.526;8.538;2023-03-26T02:48:23;28.53;;;14.50;;
73023;SDS011;61199;47.526;8.538;2023-03-26T02:50:50;23.20;;;11.67;;
73023;SDS011;61199;47.526;8.538;2023-03-26T02:53:20;10.77;;;4.50;;
73023;SDS011;61199;47.526;8.538;2023-03-26T02:55:58;6.20;;;3.20;;
73023;SDS011;61199;47.526;8.538;2023-03-26T02:58:25;6.43;;;2.60;;
73023;SDS011;61199;47.526;8.538;2023-03-26T03:00:55;9.63;;;2.43;;
73023;SDS011;61199;47.526;8.538;2023-03-26T03:03:23;6.53;;;2.13;;
73023;SDS011;61199;47.526;8.538;2023-03-26T03:05:51;8.50;;;2.83;;
73023;SDS011;61199;47.526;8.538;2023-03-26T03:08:23;5.17;;;1.97;;
73023;SDS011;61199;47.526;8.538;2023-03-26T03:13:24;8.77;;;2.17;;
73023;SDS011;61199;47.526;8.538;2023-03-26T03:15:51;9.00;;;2.57;;
73023;SDS011;61199;47.526;8.538;2023-03-26T03:18:18;6.83;;;2.33;;
73023;SDS011;61199;47.526;8.538;2023-03-26T03:20:44;7.37;;;1.80;;
73023;SDS011;61199;47.526;8.538;2023-03-26T03:23:12;4.17;;;1.87;;
73023;SDS011;61199;47.526;8.538;2023-03-26T03:25:38;4.33;;;1.70;;
73023;SDS011;61199;47.526;8.538;2023-03-26T03:28:06;6.93;;;1.90;;
73023;SDS011;61199;47.526;8.538;2023-03-26T03:30:33;5.87;;;1.90;;
73023;SDS011;61199;47.526;8.538;2023-03-26T03:33:01;7.27;;;2.27;;
73023;SDS011;61199;47.526;8.538;2023-03-26T03:35:28;11.23;;;2.07;;
73023;SDS011;61199;47.526;8.538;2023-03-26T03:37:56;6.73;;;2.10;;
73023;SDS011;61199;47.526;8.538;2023-03-26T03:40:23;6.77;;;2.27;;
73023;SDS011;61199;47.526;8.538;2023-03-26T03:42:49;10.50;;;2.37;;
73023;SDS011;61199;47.526;8.538;2023-03-26T03:45:16;7.83;;;2.30;;
73023;SDS011;61199;47.526;8.538;2023-03-26T03:47:43;4.73;;;2.17;;
73023;SDS011;61199;47.526;8.538;2023-03-26T03:50:09;3.77;;;1.97;;
73023;SDS011;61199;47.526;8.538;2023-03-26T03:52:36;5.63;;;1.97;;
73023;SDS011;61199;47.526;8.538;2023-03-26T03:55:02;4.20;;;2.33;;
73023;SDS011;61199;47.526;8.538;2023-03-26T03:57:29;9.00;;;2.17;;
73023;SDS011;61199;47.526;8.538;2023-03-26T03:59:57;8.37;;;1.77;;
73023;SDS011;61199;47.526;8.538;2023-03-26T04:02:24;15.07;;;7.10;;
73023;SDS011;61199;47.526;8.538;2023-03-26T04:05:00;23.40;;;11.60;;
73023;SDS011;61199;47.526;8.538;2023-03-26T04:07:28;8.10;;;2.93;;
73023;SDS011;61199;47.526;8.538;2023-03-26T04:09:56;4.80;;;1.80;;
73023;SDS011;61199;47.526;8.538;2023-03-26T04:12:26;10.17;;;2.30;;
73023;SDS011;61199;47.526;8.538;2023-03-26T04:14:53;5.10;;;2.27;;
73023;SDS011;61199;47.526;8.538;2023-03-26T04:17:20;7.50;;;2.40;;
73023;SDS011;61199;47.526;8.538;2023-03-26T04:19:48;6.27;;;2.53;;
73023;SDS011;61199;47.526;8.538;2023-03-26T04:22:15;9.10;;;2.53;;
73023;SDS011;61199;47.526;8.538;2023-03-26T04:24:43;4.47;;;2.00;;
73023;SDS011;61199;47.526;8.538;2023-03-26T04:27:11;4.73;;;1.73;;
73023;SDS011;61199;47.526;8.538;2023-03-26T04:29:41;11.27;;;2.17;;
73023;SDS011;61199;47.526;8.538;2023-03-26T04:32:15;5.70;;;2.10;;
73023;SDS011;61199;47.526;8.538;2023-03-26T04:34:46;3.60;;;2.10;;
73023;SDS011;61199;47.526;8.538;2023-03-26T04:37:16;3.13;;;2.03;;
73023;SDS011;61199;47.526;8.538;2023-03-26T04:39:49;9.87;;;2.10;;
73023;SDS011;61199;47.526;8.538;2023-03-26T04:42:16;4.13;;;2.03;;
73023;SDS011;61199;47.526;8.538;2023-03-26T04:44:45;3.97;;;2.00;;
73023;SDS011;61199;47.526;8.538;2023-03-26T04:47:16;5.40;;;2.20;;
73023;SDS011;61199;47.526;8.538;2023-03-26T04:49:44;7.20;;;2.50;;
73023;SDS011;61199;47.526;8.538;2023-03-26T04:52:12;7.07;;;2.00;;
73023;SDS011;61199;47.526;8.538;2023-03-26T04:54:39;3.70;;;2.20;;
73023;SDS011;61199;47.526;8.538;2023-03-26T04:57:14;6.87;;;2.50;;
73023;SDS011;61199;47.526;8.538;2023-03-26T04:59:47;7.43;;;2.50;;
73023;SDS011;61199;47.526;8.538;2023-03-26T05:02:15;4.40;;;2.07;;
73023;SDS011;61199;47.526;8.538;2023-03-26T05:04:43;5.23;;;2.13;;
73023;SDS011;61199;47.526;8.538;2023-03-26T05:07:15;6.00;;;2.00;;
73023;SDS011;61199;47.526;8.538;2023-03-26T05:09:43;3.60;;;1.80;;
73023;SDS011;61199;47.526;8.538;2023-03-26T05:12:10;12.57;;;2.33;;
73023;SDS011;61199;47.526;8.538;2023-03-26T05:14:36;8.70;;;2.43;;
73023;SDS011;61199;47.526;8.538;2023-03-26T05:17:03;6.80;;;2.57;;
73023;SDS011;61199;47.526;8.538;2023-03-26T05:19:36;5.00;;;2.07;;
73023;SDS011;61199;47.526;8.538;2023-03-26T05:22:03;4.23;;;2.00;;
73023;SDS011;61199;47.526;8.538;2023-03-26T05:24:29;4.83;;;1.87;;
73023;SDS011;61199;47.526;8.538;2023-03-26T05:26:55;36.43;;;5.93;;
73023;SDS011;61199;47.526;8.538;2023-03-26T05:29:22;26.40;;;4.47;;
73023;SDS011;61199;47.526;8.538;2023-03-26T05:31:49;13.03;;;3.17;;
73023;SDS011;61199;47.526;8.538;2023-03-26T05:34:16;12.43;;;2.50;;
73023;SDS011;61199;47.526;8.538;2023-03-26T05:36:42;5.30;;;2.33;;
73023;SDS011;61199;47.526;8.538;2023-03-26T05:39:09;8.83;;;2.43;;
73023;SDS011;61199;47.526;8.538;2023-03-26T05:41:35;10.57;;;2.70;;
73023;SDS011;61199;47.526;8.538;2023-03-26T05:44:02;8.90;;;3.40;;
73023;SDS011;61199;47.526;8.538;2023-03-26T05:46:28;7.97;;;2.90;;
73023;SDS011;61199;47.526;8.538;2023-03-26T05:48:54;8.70;;;2.93;;
73023;SDS011;61199;47.526;8.538;2023-03-26T05:51:21;7.83;;;2.83;;
73023;SDS011;61199;47.526;8.538;2023-03-26T05:53:48;8.33;;;3.00;;
73023;SDS011;61199;47.526;8.538;2023-03-26T05:56:14;6.53;;;2.60;;
73023;SDS011;61199;47.526;8.538;2023-03-26T05:58:41;5.53;;;3.00;;
73023;SDS011;61199;47.526;8.538;2023-03-26T06:01:09;3.97;;;2.73;;
73023;SDS011;61199;47.526;8.538;2023-03-26T06:03:42;8.23;;;2.87;;
73023;SDS011;61199;47.526;8.538;2023-03-26T06:06:11;8.80;;;2.97;;
73023;SDS011;61199;47.526;8.538;2023-03-26T06:08:44;8.20;;;2.70;;
73023;SDS011;61199;47.526;8.538;2023-03-26T06:11:11;6.07;;;2.60;;
73023;SDS011;61199;47.526;8.538;2023-03-26T06:13:38;5.87;;;2.37;;
73023;SDS011;61199;47.526;8.538;2023-03-26T06:16:04;6.40;;;2.97;;
73023;SDS011;61199;47.526;8.538;2023-03-26T06:18:31;6.00;;;2.37;;
73023;SDS011;61199;47.526;8.538;2023-03-26T06:20:58;5.63;;;2.20;;
73023;SDS011;61199;47.526;8.538;2023-03-26T06:23:24;7.57;;;2.87;;
73023;SDS011;61199;47.526;8.538;2023-03-26T06:25:50;6.00;;;2.00;;
73023;SDS011;61199;47.526;8.538;2023-03-26T06:28:17;4.03;;;2.40;;
73023;SDS011;61199;47.526;8.538;2023-03-26T06:30:43;7.47;;;2.33;;
73023;SDS011;61199;47.526;8.538;2023-03-26T06:33:10;1.77;;;1.53;;
73023;SDS011;61199;47.526;8.538;2023-03-26T06:35:36;4.27;;;1.70;;
73023;SDS011;61199;47.526;8.538;2023-03-26T06:38:03;4.60;;;1.97;;
73023;SDS011;61199;47.526;8.538;2023-03-26T06:40:29;7.07;;;1.60;;
73023;SDS011;61199;47.526;8.538;2023-03-26T06:42:56;4.60;;;1.90;;
73023;SDS011;61199;47.526;8.538;2023-03-26T06:45:35;4.00;;;1.97;;
73023;SDS011;61199;47.526;8.538;2023-03-26T06:48:01;5.57;;;2.33;;
73023;SDS011;61199;47.526;8.538;2023-03-26T06:50:28;5.67;;;2.20;;
73023;SDS011;61199;47.526;8.538;2023-03-26T06:52:57;7.30;;;2.00;;
73023;SDS011;61199;47.526;8.538;2023-03-26T06:55:24;7.40;;;2.07;;
73023;SDS011;61199;47.526;8.538;2023-03-26T06:57:51;8.67;;;4.13;;
73023;SDS011;61199;47.526;8.538;2023-03-26T07:00:18;4.40;;;2.07;;
73023;SDS011;61199;47.526;8.538;2023-03-26T07:02:46;9.30;;;2.60;;
73023;SDS011;61199;47.526;8.538;2023-03-26T07:05:12;6.47;;;2.30;;
73023;SDS011;61199;47.526;8.538;2023-03-26T07:07:39;6.23;;;1.73;;
73023;SDS011;61199;47.526;8.538;2023-03-26T07:10:12;5.63;;;2.33;;
73023;SDS011;61199;47.526;8.538;2023-03-26T07:12:38;3.97;;;1.87;;
73023;SDS011;61199;47.526;8.538;2023-03-26T07:15:05;4.77;;;2.03;;
73023;SDS011;61199;47.526;8.538;2023-03-26T07:17:31;8.17;;;2.00;;
73023;SDS011;61199;47.526;8.538;2023-03-26T07:19:58;3.50;;;1.80;;
73023;SDS011;61199;47.526;8.538;2023-03-26T07:22:26;4.57;;;1.83;;
73023;SDS011;61199;47.526;8.538;2023-03-26T07:24:53;4.13;;;2.13;;
73023;SDS011;61199;47.526;8.538;2023-03-26T07:27:23;11.40;;;2.17;;
73023;SDS011;61199;47.526;8.538;2023-03-26T07:30:08;5.17;;;2.30;;
73023;SDS011;61199;47.526;8.538;2023-03-26T07:35:31;3.20;;;1.77;;
73023;SDS011;61199;47.526;8.538;2023-03-26T07:46:35;4.70;;;1.70;;
73023;SDS011;61199;47.526;8.538;2023-03-26T07:49:02;6.97;;;1.90;;
73023;SDS011;61199;47.526;8.538;2023-03-26T07:51:29;6.93;;;2.50;;
73023;SDS011;61199;47.526;8.538;2023-03-26T07:53:57;4.47;;;1.93;;
73023;SDS011;61199;47.526;8.538;2023-03-26T07:56:33;9.67;;;2.03;;
73023;SDS011;61199;47.526;8.538;2023-03-26T07:59:21;8.63;;;2.10;;
73023;SDS011;61199;47.526;8.538;2023-03-26T08:10:20;5.60;;;1.90;;
73023;SDS011;61199;47.526;8.538;2023-03-26T08:15:52;5.80;;;2.37;;
73023;SDS011;61199;47.526;8.538;2023-03-26T08:21:34;5.93;;;2.27;;
73023;SDS011;61199;47.526;8.538;2023-03-26T08:25:13;4.27;;;2.00;;
73023;SDS011;61199;47.526;8.538;2023-03-26T08:27:25;6.30;;;2.20;;
73023;SDS011;61199;47.526;8.538;2023-03-26T08:30:21;7.43;;;2.67;;
73023;SDS011;61199;47.526;8.538;2023-03-26T08:32:54;6.77;;;2.27;;
73023;SDS011;61199;47.526;8.538;2023-03-26T08:35:23;5.10;;;1.83;;
73023;SDS011;61199;47.526;8.538;2023-03-26T08:37:50;6.87;;;1.97;;
73023;SDS011;61199;47.526;8.538;2023-03-26T08:40:19;12.33;;;2.73;;
73023;SDS011;61199;47.526;8.538;2023-03-26T08:45:57;10.70;;;3.07;;
73023;SDS011;61199;47.526;8.538;2023-03-26T08:48:55;2.63;;;1.70;;
73023;SDS011;61199;47.526;8.538;2023-03-26T08:51:31;4.03;;;1.83;;
73023;SDS011;61199;47.526;8.538;2023-03-26T08:54:41;4.70;;;2.17;;
73023;SDS011;61199;47.526;8.538;2023-03-26T08:57:58;3.40;;;2.00;;
73023;SDS011;61199;47.526;8.538;2023-03-26T09:00:34;6.43;;;2.43;;
73023;SDS011;61199;47.526;8.538;2023-03-26T09:03:07;8.43;;;1.97;;
73023;SDS011;61199;47.526;8.538;2023-03-26T09:08:36;8.33;;;2.00;;
73023;SDS011;61199;47.526;8.538;2023-03-26T09:11:26;6.57;;;2.37;;
73023;SDS011;61199;47.526;8.538;2023-03-26T09:14:39;10.47;;;3.33;;
73023;SDS011;61199;47.526;8.538;2023-03-26T09:23:29;8.33;;;2.60;;
73023;SDS011;61199;47.526;8.538;2023-03-26T09:26:25;2.93;;;1.67;;
73023;SDS011;61199;47.526;8.538;2023-03-26T09:34:40;3.60;;;1.20;;
73023;SDS011;61199;47.526;8.538;2023-03-26T09:40:27;8.20;;;2.03;;
73023;SDS011;61199;47.526;8.538;2023-03-26T09:43:09;5.90;;;2.10;;
73023;SDS011;61199;47.526;8.538;2023-03-26T09:46:17;4.17;;;1.70;;
73023;SDS011;61199;47.526;8.538;2023-03-26T09:51:46;3.03;;;1.87;;
73023;SDS011;61199;47.526;8.538;2023-03-26T09:54:37;8.43;;;1.80;;
73023;SDS011;61199;47.526;8.538;2023-03-26T09:59:51;5.07;;;2.00;;
73023;SDS011;61199;47.526;8.538;2023-03-26T10:05:25;9.13;;;3.30;;
73023;SDS011;61199;47.526;8.538;2023-03-26T10:14:07;9.40;;;1.67;;
73023;SDS011;61199;47.526;8.538;2023-03-26T10:33:38;4.23;;;1.80;;
73023;SDS011;61199;47.526;8.538;2023-03-26T10:36:21;5.73;;;1.83;;
73023;SDS011;61199;47.526;8.538;2023-03-26T10:39:39;5.10;;;1.73;;
73023;SDS011;61199;47.526;8.538;2023-03-26T10:53:42;8.37;;;2.07;;
73023;SDS011;61199;47.526;8.538;2023-03-26T10:56:20;3.60;;;1.77;;
73023;SDS011;61199;47.526;8.538;2023-03-26T10:58:51;5.13;;;2.17;;
73023;SDS011;61199;47.526;8.538;2023-03-26T11:04:18;12.17;;;1.87;;
73023;SDS011;61199;47.526;8.538;2023-03-26T11:07:12;7.37;;;1.90;;
73023;SDS011;61199;47.526;8.538;2023-03-26T11:10:01;5.33;;;1.83;;
73023;SDS011;61199;47.526;8.538;2023-03-26T11:15:39;6.20;;;1.80;;
73023;SDS011;61199;47.526;8.538;2023-03-26T11:18:30;7.53;;;2.43;;
73023;SDS011;61199;47.526;8.538;2023-03-26T11:26:52;2.30;;;1.50;;
73023;SDS011;61199;47.526;8.538;2023-03-26T11:32:16;7.40;;;2.30;;
73023;SDS011;61199;47.526;8.538;2023-03-26T11:34:58;8.27;;;2.60;;
73023;SDS011;61199;47.526;8.538;2023-03-26T11:37:32;5.40;;;1.57;;
73023;SDS011;61199;47.526;8.538;2023-03-26T11:40:08;4.10;;;1.70;;
73023;SDS011;61199;47.526;8.538;2023-03-26T11:42:39;5.93;;;2.17;;
73023;SDS011;61199;47.526;8.538;2023-03-26T11:45:12;5.83;;;2.30;;
73023;SDS011;61199;47.526;8.538;2023-03-26T11:50:17;4.90;;;1.70;;
73023;SDS011;61199;47.526;8.538;2023-03-26T11:52:46;7.03;;;1.33;;
73023;SDS011;61199;47.526;8.538;2023-03-26T11:55:13;5.37;;;1.40;;
73023;SDS011;61199;47.526;8.538;2023-03-26T11:57:42;2.50;;;1.10;;
73023;SDS011;61199;47.526;8.538;2023-03-26T12:00:16;3.20;;;1.30;;
73023;SDS011;61199;47.526;8.538;2023-03-26T12:02:46;8.90;;;1.87;;
73023;SDS011;61199;47.526;8.538;2023-03-26T12:05:18;3.87;;;1.50;;
73023;SDS011;61199;47.526;8.538;2023-03-26T12:07:54;4.23;;;1.83;;
73023;SDS011;61199;47.526;8.538;2023-03-26T12:10:31;4.73;;;1.77;;
73023;SDS011;61199;47.526;8.538;2023-03-26T12:15:50;5.43;;;1.70;;
73023;SDS011;61199;47.526;8.538;2023-03-26T12:18:24;4.50;;;1.57;;
73023;SDS011;61199;47.526;8.538;2023-03-26T12:24:01;2.23;;;1.00;;
73023;SDS011;61199;47.526;8.538;2023-03-26T12:29:03;5.80;;;0.80;;
73023;SDS011;61199;47.526;8.538;2023-03-26T12:31:41;3.43;;;1.20;;
73023;SDS011;61199;47.526;8.538;2023-03-26T12:34:16;4.30;;;1.50;;
73023;SDS011;61199;47.526;8.538;2023-03-26T12:37:03;5.10;;;1.20;;
73023;SDS011;61199;47.526;8.538;2023-03-26T12:39:38;2.17;;;1.50;;
73023;SDS011;61199;47.526;8.538;2023-03-26T12:42:30;2.60;;;1.00;;
73023;SDS011;61199;47.526;8.538;2023-03-26T12:45:21;5.20;;;1.20;;
73023;SDS011;61199;47.526;8.538;2023-03-26T12:47:53;3.60;;;1.13;;
73023;SDS011;61199;47.526;8.538;2023-03-26T12:50:35;4.10;;;1.33;;
73023;SDS011;61199;47.526;8.538;2023-03-26T12:56:11;3.43;;;1.30;;
73023;SDS011;61199;47.526;8.538;2023-03-26T13:01:33;2.97;;;1.30;;
73023;SDS011;61199;47.526;8.538;2023-03-26T13:12:25;3.77;;;1.07;;
73023;SDS011;61199;47.526;8.538;2023-03-26T13:15:16;1.30;;;0.80;;
73023;SDS011;61199;47.526;8.538;2023-03-26T13:18:06;2.53;;;1.30;;
73023;SDS011;61199;47.526;8.538;2023-03-26T13:20:49;2.60;;;1.20;;
73023;SDS011;61199;47.526;8.538;2023-03-26T13:29:34;3.90;;;1.40;;
73023;SDS011;61199;47.526;8.538;2023-03-26T13:32:42;1.83;;;1.13;;
73023;SDS011;61199;47.526;8.538;2023-03-26T13:35:16;3.93;;;1.30;;
73023;SDS011;61199;47.526;8.538;2023-03-26T13:37:59;4.10;;;1.40;;
73023;SDS011;61199;47.526;8.538;2023-03-26T13:46:41;4.17;;;1.43;;
73023;SDS011;61199;47.526;8.538;2023-03-26T13:49:17;2.70;;;1.10;;
73023;SDS011;61199;47.526;8.538;2023-03-26T13:51:55;2.57;;;1.10;;
73023;SDS011;61199;47.526;8.538;2023-03-26T13:54:29;1.33;;;0.87;;
73023;SDS011;61199;47.526;8.538;2023-03-26T14:00:12;2.73;;;1.00;;
73023;SDS011;61199;47.526;8.538;2023-03-26T14:02:43;1.23;;;0.73;;
73023;SDS011;61199;47.526;8.538;2023-03-26T14:07:54;5.40;;;1.07;;
73023;SDS011;61199;47.526;8.538;2023-03-26T14:10:27;2.10;;;0.90;;
73023;SDS011;61199;47.526;8.538;2023-03-26T14:13:00;3.03;;;0.80;;
73023;SDS011;61199;47.526;8.538;2023-03-26T14:15:48;2.70;;;1.00;;
73023;SDS011;61199;47.526;8.538;2023-03-26T14:26:49;2.77;;;0.87;;
73023;SDS011;61199;47.526;8.538;2023-03-26T14:32:35;12.47;;;1.27;;
73023;SDS011;61199;47.526;8.538;2023-03-26T14:35:27;8.47;;;1.33;;
73023;SDS011;61199;47.526;8.538;2023-03-26T14:41:23;6.93;;;2.20;;
73023;SDS011;61199;47.526;8.538;2023-03-26T14:43:58;6.07;;;0.80;;
73023;SDS011;61199;47.526;8.538;2023-03-26T14:47:01;6.43;;;0.80;;
73023;SDS011;61199;47.526;8.538;2023-03-26T14:52:50;2.40;;;0.80;;
73023;SDS011;61199;47.526;8.538;2023-03-26T15:01:24;2.37;;;1.10;;
73023;SDS011;61199;47.526;8.538;2023-03-26T15:15:32;3.20;;;0.60;;
73023;SDS011;61199;47.526;8.538;2023-03-26T15:35:12;1.63;;;1.03;;
73023;SDS011;61199;47.526;8.538;2023-03-26T15:43:11;1.63;;;0.93;;
73023;SDS011;61199;47.526;8.538;2023-03-26T15:45:41;1.87;;;1.00;;
73023;SDS011;61199;47.526;8.538;2023-03-26T15:48:28;1.93;;;0.97;;
73023;SDS011;61199;47.526;8.538;2023-03-26T15:51:17;3.17;;;1.20;;
73023;SDS011;61199;47.526;8.538;2023-03-26T15:54:23;0.90;;;0.70;;
73023;SDS011;61199;47.526;8.538;2023-03-26T16:19:30;1.27;;;0.67;;
73023;SDS011;61199;47.526;8.538;2023-03-26T16:22:06;0.90;;;0.60;;
73023;SDS011;61199;47.526;8.538;2023-03-26T16:24:42;1.00;;;0.70;;
73023;SDS011;61199;47.526;8.538;2023-03-26T16:30:01;1.80;;;0.80;;
73023;SDS011;61199;47.526;8.538;2023-03-26T16:32:43;2.50;;;0.80;;
73023;SDS011;61199;47.526;8.538;2023-03-26T16:35:39;2.33;;;1.07;;
73023;SDS011;61199;47.526;8.538;2023-03-26T16:40:49;5.33;;;1.00;;
73023;SDS011;61199;47.526;8.538;2023-03-26T16:43:39;1.03;;;0.73;;
73023;SDS011;61199;47.526;8.538;2023-03-26T16:48:54;0.80;;;0.60;;
73023;SDS011;61199;47.526;8.538;2023-03-26T16:57:09;1.43;;;0.83;;
73023;SDS011;61199;47.526;8.538;2023-03-26T17:00:33;0.90;;;0.70;;
73023;SDS011;61199;47.526;8.538;2023-03-26T17:05:28;1.60;;;0.77;;
73023;SDS011;61199;47.526;8.538;2023-03-26T17:08:15;2.17;;;0.90;;
73023;SDS011;61199;47.526;8.538;2023-03-26T17:16:32;2.07;;;0.77;;
73023;SDS011;61199;47.526;8.538;2023-03-26T17:24:22;1.00;;;0.80;;
73023;SDS011;61199;47.526;8.538;2023-03-26T17:26:58;2.47;;;1.30;;
73023;SDS011;61199;47.526;8.538;2023-03-26T17:32:50;5.43;;;1.20;;
73023;SDS011;61199;47.526;8.538;2023-03-26T17:35:35;2.70;;;0.80;;
73023;SDS011;61199;47.526;8.538;2023-03-26T17:38:08;2.00;;;0.90;;
73023;SDS011;61199;47.526;8.538;2023-03-26T17:43:31;1.10;;;0.87;;
73023;SDS011;61199;47.526;8.538;2023-03-26T17:46:04;1.80;;;0.90;;
73023;SDS011;61199;47.526;8.538;2023-03-26T17:51:45;2.23;;;1.33;;
73023;SDS011;61199;47.526;8.538;2023-03-26T17:54:18;3.07;;;1.60;;
73023;SDS011;61199;47.526;8.538;2023-03-26T17:56:49;12.50;;;4.63;;
73023;SDS011;61199;47.526;8.538;2023-03-26T17:59:19;4.47;;;2.63;;
73023;SDS011;61199;47.526;8.538;2023-03-26T18:01:53;9.47;;;3.80;;
73023;SDS011;61199;47.526;8.538;2023-03-26T18:04:28;5.23;;;2.40;;
73023;SDS011;61199;47.526;8.538;2023-03-26T18:09:42;10.00;;;3.10;;
73023;SDS011;61199;47.526;8.538;2023-03-26T18:15:27;5.77;;;2.60;;
73023;SDS011;61199;47.526;8.538;2023-03-26T18:18:06;4.73;;;2.10;;
73023;SDS011;61199;47.526;8.538;2023-03-26T18:20:36;11.40;;;3.87;;
73023;SDS011;61199;47.526;8.538;2023-03-26T18:23:10;2.07;;;1.27;;
73023;SDS011;61199;47.526;8.538;2023-03-26T18:25:48;2.27;;;1.33;;
73023;SDS011;61199;47.526;8.538;2023-03-26T18:28:27;1.70;;;1.03;;
73023;SDS011;61199;47.526;8.538;2023-03-26T18:30:55;1.20;;;0.83;;
73023;SDS011;61199;47.526;8.538;2023-03-26T18:33:42;2.23;;;1.13;;
73023;SDS011;61199;47.526;8.538;2023-03-26T18:36:10;3.43;;;1.10;;
73023;SDS011;61199;47.526;8.538;2023-03-26T18:38:38;2.67;;;1.00;;
73023;SDS011;61199;47.526;8.538;2023-03-26T18:41:12;1.43;;;0.93;;
73023;SDS011;61199;47.526;8.538;2023-03-26T18:43:44;2.63;;;1.43;;
73023;SDS011;61199;47.526;8.538;2023-03-26T18:46:11;1.63;;;0.90;;
73023;SDS011;61199;47.526;8.538;2023-03-26T18:48:39;1.60;;;1.20;;
73023;SDS011;61199;47.526;8.538;2023-03-26T18:51:06;1.50;;;1.10;;
73023;SDS011;61199;47.526;8.538;2023-03-26T18:53:37;3.43;;;1.60;;
73023;SDS011;61199;47.526;8.538;2023-03-26T18:59:06;5.00;;;1.87;;
73023;SDS011;61199;47.526;8.538;2023-03-26T19:01:46;5.17;;;2.13;;
73023;SDS011;61199;47.526;8.538;2023-03-26T19:04:14;3.90;;;1.60;;
73023;SDS011;61199;47.526;8.538;2023-03-26T19:06:41;3.73;;;1.13;;
73023;SDS011;61199;47.526;8.538;2023-03-26T19:09:09;5.23;;;2.50;;
73023;SDS011;61199;47.526;8.538;2023-03-26T19:11:56;10.07;;;3.57;;
73023;SDS011;61199;47.526;8.538;2023-03-26T19:14:29;8.93;;;3.13;;
73023;SDS011;61199;47.526;8.538;2023-03-26T19:17:00;18.67;;;6.17;;
73023;SDS011;61199;47.526;8.538;2023-03-26T19:19:31;7.87;;;4.13;;
73023;SDS011;61199;47.526;8.538;2023-03-26T19:22:04;5.03;;;1.50;;
73023;SDS011;61199;47.526;8.538;2023-03-26T19:24:32;5.90;;;3.10;;
73023;SDS011;61199;47.526;8.538;2023-03-26T19:26:59;5.10;;;1.70;;
73023;SDS011;61199;47.526;8.538;2023-03-26T19:29:27;4.50;;;1.23;;
73023;SDS011;61199;47.526;8.538;2023-03-26T19:32:16;4.80;;;1.30;;
73023;SDS011;61199;47.526;8.538;2023-03-26T19:34:52;2.90;;;1.60;;
73023;SDS011;61199;47.526;8.538;2023-03-26T19:37:20;2.23;;;1.20;;
73023;SDS011;61199;47.526;8.538;2023-03-26T19:39:51;2.37;;;1.10;;
73023;SDS011;61199;47.526;8.538;2023-03-26T19:45:12;3.83;;;1.40;;
73023;SDS011;61199;47.526;8.538;2023-03-26T19:47:41;4.47;;;1.80;;
73023;SDS011;61199;47.526;8.538;2023-03-26T19:50:26;2.83;;;1.70;;
73023;SDS011;61199;47.526;8.538;2023-03-26T19:56:02;4.13;;;1.30;;
73023;SDS011;61199;47.526;8.538;2023-03-26T19:58:36;2.33;;;1.20;;
73023;SDS011;61199;47.526;8.538;2023-03-26T20:01:03;1.63;;;1.20;;
73023;SDS011;61199;47.526;8.538;2023-03-26T20:03:37;3.40;;;1.00;;
73023;SDS011;61199;47.526;8.538;2023-03-26T20:06:08;1.73;;;0.97;;
73023;SDS011;61199;47.526;8.538;2023-03-26T20:08:37;2.20;;;1.13;;
73023;SDS011;61199;47.526;8.538;2023-03-26T20:11:08;1.97;;;1.30;;
73023;SDS011;61199;47.526;8.538;2023-03-26T20:13:40;4.37;;;1.53;;
73023;SDS011;61199;47.526;8.538;2023-03-26T20:16:07;1.03;;;0.80;;
73023;SDS011;61199;47.526;8.538;2023-03-26T20:18:39;2.13;;;0.97;;
73023;SDS011;61199;47.526;8.538;2023-03-26T20:21:10;2.60;;;0.97;;